Time;durP1;ratioP1;P1;durP2;ratioP2;P2;SDS_P1;SDS_P2;PMS_P1;PMS_P2;Temp;Humidity;BMP_temperature;BMP_pressure;BME280_temperature;BME280_humidity;BME280_pressure;Samples;Min_cycle;Max_cycle;Signal;HPM_P1;HPM_P2
2021/12/18 00:03:43;;;;;;;10.23;5.12;;;;;;;3.84;58.42;101044.63;7633320;32;40036;-71
2021/12/18 00:07:59;;;;;;;8.48;4.78;;;;;;;3.87;58.31;101047.75;7633185;32;39987;-70
2021/12/18 00:12:15;;;;;;;8.23;5.03;;;;;;;3.69;58.95;101061.75;7633050;32;37907;-71
2021/12/18 00:16:32;;;;;;;7.87;4.43;;;;;;;3.89;58.50;101061.88;7633125;32;37024;-71
2021/12/18 00:20:48;;;;;;;11.12;5.60;;;;;;;4.09;57.91;101074.69;7633036;32;39339;-71
2021/12/18 00:25:05;;;;;;;7.90;5.00;;;;;;;3.78;58.79;101069.66;7633017;32;40320;-71
2021/12/18 00:29:21;;;;;;;7.37;5.00;;;;;;;4.03;58.09;101079.00;7633190;32;38558;-71
2021/12/18 00:33:37;;;;;;;11.85;5.03;;;;;;;3.46;59.77;101098.88;7632972;32;37100;-70
2021/12/18 00:37:53;;;;;;;8.05;4.53;;;;;;;3.89;58.52;101082.62;7632870;32;40244;-70
2021/12/18 00:46:44;;;;;;;9.13;4.72;;;;;;;3.74;58.69;101080.87;7632202;32;37703;-71
2021/12/18 00:51:00;;;;;;;9.55;5.12;;;;;;;4.00;57.98;101101.00;7632952;32;37043;-71
2021/12/18 00:55:22;;;;;;;8.32;5.03;;;;;;;3.78;58.74;101092.09;7632803;32;39745;-69
2021/12/18 00:59:38;;;;;;;8.70;5.15;;;;;;;3.98;58.23;101103.03;7632622;32;39876;-72
2021/12/18 01:03:56;;;;;;;8.52;5.43;;;;;;;3.33;60.00;101103.09;7632554;32;38514;-71
2021/12/18 01:08:13;;;;;;;9.40;5.32;;;;;;;3.90;58.86;101100.50;7632589;32;36096;-71
2021/12/18 01:12:37;;;;;;;11.63;5.60;;;;;;;3.62;59.52;101109.38;7632556;32;39254;-71
2021/12/18 01:25:54;;;;;;;9.23;5.15;;;;;;;4.20;57.81;101121.87;7632402;32;37163;-72
2021/12/18 01:30:13;;;;;;;10.95;5.12;;;;;;;4.29;57.46;101126.09;7632337;32;39290;-72
2021/12/18 01:34:29;;;;;;;10.48;5.22;;;;;;;4.26;57.24;101131.87;7632347;32;40849;-71
2021/12/18 01:38:45;;;;;;;14.93;6.15;;;;;;;4.38;56.87;101138.44;7632092;32;38550;-71
2021/12/18 01:52:23;;;;;;;12.27;4.97;;;;;;;4.12;57.00;101148.00;7632240;32;40793;-72
2021/12/18 01:56:39;;;;;;;9.80;5.30;;;;;;;4.00;57.53;101154.97;7631968;32;38556;-71
2021/12/18 02:00:57;;;;;;;10.65;4.72;;;;;;;4.26;56.62;101142.69;7630745;32;38557;-71
2021/12/18 02:05:13;;;;;;;8.40;4.90;;;;;;;4.27;56.57;101144.38;7631924;32;40132;-70
2021/12/18 02:10:18;;;;;;;12.73;5.12;;;;;;;4.12;56.69;101153.41;7631529;32;39930;-70
2021/12/18 02:14:33;;;;;;;9.25;5.22;;;;;;;4.24;56.36;101161.81;7626046;32;38072;-71
2021/12/18 02:23:21;;;;;;;11.05;6.25;;;;;;;4.37;57.11;101155.66;7631705;32;39227;-72
2021/12/18 02:27:37;;;;;;;13.38;5.87;;;;;;;4.18;58.91;101156.34;7631522;32;40710;-72
2021/12/18 02:31:53;;;;;;;10.82;5.57;;;;;;;4.16;59.00;101150.28;7631356;32;37794;-69
2021/12/18 02:36:11;;;;;;;13.45;6.03;;;;;;;4.18;59.39;101165.28;7631365;32;37238;-70
2021/12/18 02:45:02;;;;;;;11.93;5.18;;;;;;;4.29;58.29;101180.09;7631114;32;40746;-71
2021/12/18 02:49:19;;;;;;;11.07;5.45;;;;;;;3.72;59.30;101169.22;7631457;32;37349;-71
2021/12/18 02:53:36;;;;;;;11.30;5.40;;;;;;;3.86;58.95;101156.69;7630921;32;37083;-71
2021/12/18 02:57:52;;;;;;;12.82;6.07;;;;;;;3.74;59.20;101151.00;7629581;32;40044;-71
2021/12/18 03:02:08;;;;;;;12.85;6.90;;;;;;;3.73;59.29;101170.91;7630653;32;39927;-71
2021/12/18 03:06:34;;;;;;;8.88;5.45;;;;;;;3.92;59.40;101174.00;7630461;32;37846;-71
2021/12/18 03:20:35;;;;;;;9.30;5.60;;;;;;;3.43;60.29;101213.31;7633749;32;39919;-71
2021/12/18 03:28:42;;;;;;;10.55;5.70;;;;;;;3.41;60.34;101217.25;7633789;32;37749;-71
2021/12/18 03:32:58;;;;;;;11.12;6.05;;;;;;;3.62;60.04;101227.22;7633756;32;39162;-71
2021/12/18 03:37:14;;;;;;;13.40;6.10;;;;;;;3.81;59.93;101223.06;7633617;32;39873;-72
2021/12/18 03:41:31;;;;;;;9.13;6.20;;;;;;;3.82;59.77;101214.78;7633474;32;37869;-72
2021/12/18 03:45:47;;;;;;;13.38;6.03;;;;;;;4.09;58.43;101207.78;7633591;32;38091;-69
2021/12/18 03:50:03;;;;;;;15.88;6.90;;;;;;;3.98;58.15;101215.53;7633479;32;40177;-70
2021/12/18 03:54:20;;;;;;;13.77;5.80;;;;;;;4.10;57.33;101222.09;7633470;32;39864;-72
2021/12/18 03:58:36;;;;;;;10.10;5.30;;;;;;;3.97;57.52;101230.06;7633322;32;37578;-72
2021/12/18 04:02:52;;;;;;;9.98;5.32;;;;;;;4.14;57.15;101209.91;7633493;32;36846;-71
2021/12/18 04:07:09;;;;;;;10.40;6.03;;;;;;;4.20;56.89;101216.37;7633344;32;40080;-71
2021/12/18 04:11:25;;;;;;;10.25;5.60;;;;;;;3.98;57.24;101216.37;7632989;32;40230;-70
2021/12/18 04:15:41;;;;;;;12.10;5.40;;;;;;;4.05;57.25;101214.59;7633243;32;37937;-70
2021/12/18 04:19:57;;;;;;;11.77;5.85;;;;;;;4.04;57.37;101221.00;7633103;32;37953;-70
2021/12/18 04:24:13;;;;;;;11.25;6.03;;;;;;;4.08;56.79;101216.87;7632302;32;39337;-71
2021/12/18 04:28:30;;;;;;;12.65;5.82;;;;;;;3.99;56.96;101219.94;7632991;32;39912;-71
2021/12/18 04:32:46;;;;;;;14.02;6.80;;;;;;;3.44;58.79;101235.75;7633064;32;38725;-71
2021/12/18 04:37:02;;;;;;;14.57;6.15;;;;;;;3.68;57.71;101231.84;7632920;32;36974;-71
2021/12/18 04:41:24;;;;;;;13.18;6.57;;;;;;;3.75;57.52;101243.56;7632816;32;39364;-72
2021/12/18 04:45:40;;;;;;;10.52;6.20;;;;;;;3.54;58.42;101249.75;7632846;32;39895;-71
2021/12/18 04:49:57;;;;;;;13.55;7.05;;;;;;;3.72;58.21;101254.72;7632833;32;37841;-72
2021/12/18 04:54:13;;;;;;;12.40;6.12;;;;;;;3.96;57.02;101253.50;7632758;32;37920;-70
2021/12/18 04:58:29;;;;;;;10.68;6.15;;;;;;;3.67;56.82;101266.06;7632673;32;40131;-70
2021/12/18 05:02:48;;;;;;;7.65;4.90;;;;;;;3.90;55.62;101255.13;7632525;32;40140;-70
2021/12/18 05:07:04;;;;;;;12.85;5.68;;;;;;;3.82;55.48;101254.41;7632536;32;37667;-71
2021/12/18 05:11:20;;;;;;;12.15;5.93;;;;;;;3.60;56.15;101267.03;7632455;32;37115;-71
2021/12/18 05:15:37;;;;;;;12.93;6.53;;;;;;;3.25;57.76;101274.91;7632534;32;40019;-71
2021/12/18 05:19:53;;;;;;;13.20;7.18;;;;;;;3.70;56.64;101271.09;7632318;32;40819;-69
2021/12/18 05:24:09;;;;;;;11.60;6.47;;;;;;;3.63;56.87;101278.28;7632450;32;38756;-70
2021/12/18 05:28:25;;;;;;;12.45;6.28;;;;;;;3.62;57.05;101278.47;7632312;32;37338;-71
2021/12/18 05:32:41;;;;;;;15.73;7.40;;;;;;;3.61;57.02;101269.53;7632177;32;39537;-70
2021/12/18 05:41:13;;;;;;;13.10;6.32;;;;;;;3.62;57.05;101281.97;7631994;32;38753;-70
2021/12/18 05:45:29;;;;;;;12.23;6.30;;;;;;;3.47;57.80;101275.81;7632171;32;37069;-71
2021/12/18 05:49:45;;;;;;;14.87;6.75;;;;;;;3.51;57.66;101283.31;7632032;32;40091;-71
2021/12/18 05:54:02;;;;;;;13.55;6.60;;;;;;;2.97;59.76;101291.72;7631982;32;39899;-71
2021/12/18 05:58:18;;;;;;;12.95;6.07;;;;;;;3.37;58.23;101303.88;7631912;32;37748;-71
2021/12/18 06:02:34;;;;;;;12.70;6.60;;;;;;;3.28;58.29;101312.28;7631843;32;36855;-71
2021/12/18 06:06:50;;;;;;;10.93;6.47;;;;;;;3.34;57.82;101315.03;7631884;32;39181;-71
2021/12/18 06:11:13;;;;;;;12.37;6.43;;;;;;;3.36;57.39;101306.75;7631727;32;40394;-72
2021/12/18 06:15:30;;;;;;;10.23;6.28;;;;;;;2.77;58.96;101310.25;7631727;32;38924;-70
2021/12/18 06:19:46;;;;;;;11.43;5.95;;;;;;;3.23;57.58;101310.12;7631651;32;36870;-72
2021/12/18 06:24:03;;;;;;;11.88;6.25;;;;;;;3.54;56.46;101319.88;7631623;32;39352;-71
2021/12/18 06:28:19;;;;;;;12.30;6.72;;;;;;;3.64;56.74;101315.00;7631495;32;40090;-70
2021/12/18 06:32:35;;;;;;;10.48;6.00;;;;;;;3.56;56.20;101320.50;7631230;32;38666;-70
2021/12/18 06:36:51;;;;;;;12.02;6.40;;;;;;;3.60;55.54;101327.19;7631355;32;37335;-70
2021/12/18 06:41:08;;;;;;;17.17;5.93;;;;;;;3.63;55.18;101324.13;7631136;32;39322;-71
2021/12/18 06:45:24;;;;;;;11.30;6.22;;;;;;;3.09;56.04;101324.44;7630361;32;40269;-70
2021/12/18 06:49:40;;;;;;;15.75;6.12;;;;;;;3.56;54.41;101336.69;7630934;32;38462;-72
2021/12/18 06:53:56;;;;;;;9.90;6.50;;;;;;;3.30;54.61;101340.69;7630972;32;37283;-72
2021/12/18 06:58:13;;;;;;;11.23;5.65;;;;;;;3.43;54.51;101350.81;7630806;32;40177;-70
2021/12/18 07:02:29;;;;;;;12.52;5.62;;;;;;;3.67;53.34;101352.37;7630625;32;40869;-71
2021/12/18 07:06:46;;;;;;;10.18;5.90;;;;;;;3.55;53.78;101351.19;7630538;32;37885;-70
2021/12/18 07:11:02;;;;;;;7.87;4.97;;;;;;;3.57;53.76;101349.16;7630372;32;36942;-72
2021/12/18 07:15:18;;;;;;;11.43;5.68;;;;;;;3.68;53.42;101345.97;7630358;32;39950;-71
2021/12/18 07:19:34;;;;;;;8.98;5.30;;;;;;;3.55;54.13;101348.50;7630184;32;39827;-71
2021/12/18 07:23:50;;;;;;;10.25;6.62;;;;;;;3.46;55.23;101352.31;7630088;32;37828;-71
2021/12/18 07:28:07;;;;;;;13.32;6.40;;;;;;;3.43;55.50;101358.91;7630098;32;37152;-71
2021/12/18 07:32:23;;;;;;;11.00;5.72;;;;;;;3.56;54.88;101360.97;7630098;32;40151;-71
2021/12/18 07:36:41;;;;;;;8.48;5.62;;;;;;;3.85;54.08;101359.25;7629884;32;40135;-70
2021/12/18 07:40:57;;;;;;;7.80;5.43;;;;;;;3.63;54.28;101369.97;7629664;32;38822;-69
2021/12/18 07:45:13;;;;;;;12.68;6.00;;;;;;;3.45;55.50;101369.50;7629720;32;37118;-84
2021/12/18 07:49:29;;;;;;;12.07;6.57;;;;;;;3.79;55.19;101385.09;7629551;32;40065;-84
2021/12/18 07:53:45;;;;;;;13.82;5.85;;;;;;;4.38;53.86;101391.41;7629419;32;39917;-84
2021/12/18 07:58:01;;;;;;;12.35;6.70;;;;;;;4.49;52.89;101391.72;7631381;32;37809;-83
2021/12/18 08:02:18;;;;;;;12.50;6.20;;;;;;;4.41;52.42;101380.22;7633350;32;38054;-84
2021/12/18 08:06:34;;;;;;;13.75;6.30;;;;;;;4.12;54.02;101393.63;7633390;32;39388;-83
2021/12/18 08:10:50;;;;;;;13.95;6.32;;;;;;;4.44;53.42;101383.38;7633098;32;39881;-84
2021/12/18 08:15:07;;;;;;;11.98;6.32;;;;;;;4.66;52.60;101381.50;7632038;32;37650;-83
2021/12/18 08:19:23;;;;;;;10.88;6.10;;;;;;;4.27;53.91;101398.97;7633179;32;38063;-84
2021/12/18 08:23:39;;;;;;;10.55;5.60;;;;;;;4.59;53.95;101395.97;7627574;32;39304;-85
2021/12/18 08:28:00;;;;;;;10.82;6.05;;;;;;;4.78;53.08;101389.94;7632626;32;39947;-84
2021/12/18 08:32:16;;;;;;;10.30;5.97;;;;;;;4.44;54.64;101399.56;7656812;32;38626;-85
2021/12/18 08:36:32;;;;;;;10.10;6.30;;;;;;;4.76;53.51;101392.00;7651805;32;37769;-84
2021/12/18 08:40:50;;;;;;;11.73;6.15;;;;;;;4.64;54.46;101388.97;7632708;32;40147;-83
2021/12/18 08:45:06;;;;;;;14.80;5.45;;;;;;;5.14;52.56;101391.69;7631929;32;39847;-82
2021/12/18 08:49:24;;;;;;;14.18;6.45;;;;;;;5.56;50.12;101389.03;7632404;32;37803;-82
2021/12/18 08:53:40;;;;;;;14.68;6.75;;;;;;;5.17;51.26;101404.78;7631727;32;37157;-84
2021/12/18 08:57:56;;;;;;;13.70;6.35;;;;;;;5.98;49.96;101401.53;7632172;32;39327;-85
2021/12/18 09:02:13;;;;;;;13.85;5.85;;;;;;;5.81;51.07;101392.06;7632093;32;40740;-85
2021/12/18 09:06:29;;;;;;;12.27;6.28;;;;;;;5.52;50.36;101402.13;7631320;32;38497;-84
2021/12/18 09:10:45;;;;;;;12.43;6.35;;;;;;;5.67;51.11;101393.03;7640740;32;37786;-84
2021/12/18 09:15:02;;;;;;;10.90;5.78;;;;;;;6.32;49.27;101386.25;7657497;32;39315;-85
2021/12/18 09:19:18;;;;;;;11.63;6.00;;;;;;;6.13;49.06;101376.19;7658750;32;39920;-83
2021/12/18 09:23:35;;;;;;;10.23;5.60;;;;;;;5.30;51.83;101379.72;7658543;32;37632;-83
2021/12/18 09:27:51;;;;;;;10.40;5.85;;;;;;;6.01;49.80;101384.91;7658574;32;37385;-85
2021/12/18 09:32:07;;;;;;;12.88;5.37;;;;;;;5.65;50.90;101380.53;7658592;32;40036;-77
2021/12/18 09:36:24;;;;;;;15.07;6.07;;;;;;;6.36;49.38;101395.66;7658470;32;39932;-83
2021/12/18 09:40:40;;;;;;;10.75;5.00;;;;;;;6.58;48.46;101384.62;7658310;32;38696;-83
2021/12/18 09:44:56;;;;;;;10.85;5.40;;;;;;;6.49;48.01;101377.75;7657210;32;36996;-82
2021/12/18 09:49:12;;;;;;;11.18;5.18;;;;;;;7.15;47.15;101368.78;7658354;32;39482;-84
2021/12/18 09:53:28;;;;;;;13.75;4.60;;;;;;;7.53;45.92;101354.53;7657159;32;40453;-83
2021/12/18 09:57:46;;;;;;;9.23;4.55;;;;;;;8.20;45.26;101367.81;7658343;32;37946;-83
2021/12/18 10:02:03;;;;;;;6.62;4.35;;;;;;;8.48;43.27;101372.91;7658181;32;37077;-82
2021/12/18 10:06:37;;;;;;;9.68;4.15;;;;;;;8.73;41.96;101359.34;7658159;32;39589;-84
2021/12/18 10:11:01;;;;;;;8.55;4.22;;;;;;;8.90;42.38;101348.75;7657744;32;39822;-83
2021/12/18 10:15:18;;;;;;;7.20;3.75;;;;;;;8.51;43.03;101363.50;7657930;32;37893;-82
2021/12/18 10:19:39;;;;;;;10.82;4.28;;;;;;;9.46;40.90;101346.13;7657063;32;37872;-84
2021/12/18 10:23:56;;;;;;;10.25;4.32;;;;;;;9.62;41.17;101334.59;7657784;32;39549;-83
2021/12/18 10:28:21;;;;;;;7.40;3.87;;;;;;;8.75;42.07;101335.50;7657797;32;38892;-82
2021/12/18 10:32:37;;;;;;;10.05;3.97;;;;;;;9.24;40.46;101338.37;7657800;32;37897;-82
2021/12/18 10:37:12;;;;;;;9.63;4.00;;;;;;;8.94;41.55;101333.66;7657576;32;38009;-83
2021/12/18 10:41:34;;;;;;;8.40;4.22;;;;;;;8.53;42.09;101321.44;7657447;32;40184;-83
2021/12/18 10:45:50;;;;;;;9.55;4.32;;;;;;;8.14;42.65;101320.66;7657392;32;40658;-81
2021/12/18 10:50:19;;;;;;;9.48;4.20;;;;;;;8.52;42.10;101308.91;7657139;32;38546;-81
2021/12/18 10:54:36;;;;;;;8.90;3.97;;;;;;;8.58;42.69;101301.75;7656146;32;37615;-81
2021/12/18 10:58:53;;;;;;;5.62;3.83;;;;;;;9.35;40.84;101288.66;7655925;32;39063;-80
2021/12/18 11:03:22;;;;;;;6.05;3.72;;;;;;;9.44;39.88;101266.59;7655709;32;40887;-82
2021/12/18 11:07:43;;;;;;;7.03;3.20;;;;;;;9.57;41.03;101263.66;7656899;32;38027;-81
2021/12/18 11:16:37;;;;;;;6.15;3.55;;;;;;;10.03;38.78;101251.31;7656748;32;40058;-87
2021/12/18 11:20:57;;;;;;;6.80;3.35;;;;;;;9.53;39.52;101244.25;7655226;32;39193;-82
2021/12/18 11:25:13;;;;;;;7.22;3.47;;;;;;;9.96;39.38;101236.97;7655101;32;37945;-80
2021/12/18 11:29:44;;;;;;;6.53;3.28;;;;;;;9.69;39.21;101255.56;7656298;32;37746;-80
2021/12/18 11:34:01;;;;;;;7.68;4.03;;;;;;;9.55;38.96;101235.84;7659965;32;40133;-82
2021/12/18 11:38:18;;;;;;;6.62;3.55;;;;;;;8.54;41.15;101236.13;7646350;32;40013;-81
2021/12/18 11:42:35;;;;;;;14.25;4.25;;;;;;;8.01;42.06;101241.94;7659745;32;37848;-77
2021/12/18 11:46:51;;;;;;;6.70;3.53;;;;;;;8.75;45.51;101234.06;7659846;32;37789;-82
2021/12/18 11:51:13;;;;;;;9.27;3.80;;;;;;;8.72;41.35;101238.03;7659812;32;39510;-81
2021/12/18 11:55:31;;;;;;;7.25;3.70;;;;;;;8.60;42.06;101232.50;7659799;32;39966;-80
2021/12/18 11:59:47;;;;;;;6.95;3.90;;;;;;;8.83;41.45;101233.78;7659622;32;37971;-80
2021/12/18 12:04:03;;;;;;;6.43;3.80;;;;;;;8.71;42.10;101230.09;7659640;32;37847;-82
2021/12/18 12:08:39;;;;;;;9.48;3.97;;;;;;;8.68;41.87;101236.84;7659606;32;39266;-82
2021/12/18 12:12:56;;;;;;;7.90;4.07;;;;;;;8.42;42.25;101227.88;7659257;32;39870;-75
2021/12/18 12:17:17;;;;;;;5.95;4.43;;;;;;;8.11;43.01;101233.31;7659249;32;37890;-76
2021/12/18 12:21:41;;;;;;;9.15;4.05;;;;;;;8.40;42.11;101224.50;7659762;32;35568;-75
2021/12/18 12:26:01;;;;;;;7.15;4.32;;;;;;;8.44;41.89;101214.06;7659414;32;40032;-74
2021/12/18 12:30:38;;;;;;;9.15;4.00;;;;;;;7.92;43.55;101221.53;7659432;32;40130;-75
2021/12/18 12:35:10;;;;;;;7.20;4.45;;;;;;;8.28;42.83;101204.56;7659272;32;37837;-75
2021/12/18 12:39:47;;;;;;;7.22;4.40;;;;;;;7.68;45.44;101213.13;7659165;32;37013;-74
2021/12/18 12:44:37;;;;;;;10.15;4.87;;;;;;;7.90;43.70;101202.75;7658348;32;39478;-73
2021/12/18 12:49:19;;;;;;;9.55;4.62;;;;;;;7.84;43.56;101209.06;7659107;32;40036;-74
2021/12/18 12:53:52;;;;;;;10.02;5.45;;;;;;;7.98;43.45;101199.75;7658966;32;38666;-74
2021/12/18 12:58:24;;;;;;;9.35;4.97;;;;;;;7.85;43.85;101208.00;7658910;32;37983;-73
2021/12/18 13:02:51;;;;;;;9.32;5.10;;;;;;;7.33;45.16;101199.94;7658765;32;39095;-73
2021/12/18 13:07:08;;;;;;;9.88;4.97;;;;;;;7.05;46.05;101201.06;7658853;32;39973;-73
2021/12/18 13:11:25;;;;;;;15.20;5.68;;;;;;;6.86;46.57;101196.56;7658615;32;38584;-73
2021/12/18 13:15:55;;;;;;;12.30;5.80;;;;;;;6.54;46.51;101199.13;7658882;32;37073;-73
2021/12/18 13:20:11;;;;;;;15.65;7.43;;;;;;;5.87;48.54;101187.44;7658766;32;39218;-72
2021/12/18 13:24:27;;;;;;;15.00;6.97;;;;;;;5.96;48.79;101175.41;7658481;32;40920;-73
2021/12/18 13:28:55;;;;;;;14.02;6.62;;;;;;;6.56;47.60;101180.78;7658537;32;37909;-73
2021/12/18 13:33:11;;;;;;;12.15;6.90;;;;;;;6.25;48.18;101189.56;7658578;32;37084;-72
2021/12/18 13:37:28;;;;;;;15.57;7.47;;;;;;;6.07;48.55;101182.06;7658614;32;39980;-73
2021/12/18 13:42:14;;;;;;;9.13;6.25;;;;;;;5.89;49.19;101180.78;7658439;32;39820;-73
2021/12/18 13:46:32;;;;;;;9.93;5.87;;;;;;;6.09;48.41;101190.81;7658507;32;38697;-73
2021/12/18 13:51:11;;;;;;;11.45;6.25;;;;;;;6.14;48.89;101180.19;7658313;32;37364;-73
2021/12/18 13:55:29;;;;;;;13.68;6.10;;;;;;;6.02;49.08;101188.12;7658317;32;39412;-73
2021/12/18 13:59:55;;;;;;;13.57;7.03;;;;;;;6.37;48.19;101183.31;7658239;32;40048;-73
2021/12/18 14:04:23;;;;;;;16.58;8.13;;;;;;;6.10;48.35;101190.59;7657040;32;36437;-73
2021/12/18 14:08:50;;;;;;;17.30;7.32;;;;;;;5.95;49.14;101192.63;7658177;32;36853;-73
2021/12/18 14:13:07;;;;;;;15.95;7.68;;;;;;;5.53;49.61;101184.66;7658021;32;40961;-73
2021/12/18 14:17:26;;;;;;;14.45;7.30;;;;;;;5.21;51.32;101191.66;7656742;32;40841;-72
2021/12/18 14:21:45;;;;;;;12.70;7.50;;;;;;;5.78;49.61;101170.56;7657754;32;37628;-73
2021/12/18 14:26:31;;;;;;;14.38;7.82;;;;;;;5.40;50.50;101168.41;7657870;32;37899;-72
2021/12/18 14:30:47;;;;;;;19.42;8.55;;;;;;;4.96;52.24;101173.22;7650951;32;40084;-72
2021/12/18 14:35:04;;;;;;;15.00;6.93;;;;;;;5.02;51.64;101163.50;7646825;32;39941;-71
2021/12/18 14:39:35;;;;;;;14.25;6.95;;;;;;;5.70;49.98;101159.94;7627644;32;38523;-72
2021/12/18 14:43:59;;;;;;;17.30;7.32;;;;;;;5.49;50.39;101152.84;7630425;32;37124;-73
2021/12/18 14:48:26;;;;;;;14.55;7.60;;;;;;;5.44;51.03;101161.56;7631305;32;39182;-73
2021/12/18 14:52:56;;;;;;;15.98;8.93;;;;;;;5.02;51.84;101156.22;7631172;32;40981;-73
2021/12/18 14:57:18;;;;;;;14.52;8.88;;;;;;;4.62;52.73;101156.03;7630858;32;37767;-73
2021/12/18 15:01:34;;;;;;;17.23;8.15;;;;;;;5.54;50.92;101156.59;7630809;32;37660;-73
2021/12/18 15:05:53;;;;;;;16.05;7.62;;;;;;;5.19;51.43;101151.28;7631512;32;39065;-73
2021/12/18 15:10:09;;;;;;;16.25;8.27;;;;;;;5.68;50.25;101143.09;7633762;32;40976;-72
2021/12/18 15:14:33;;;;;;;13.35;6.85;;;;;;;5.25;50.63;101123.44;7633721;32;37851;-72
2021/12/18 15:18:50;;;;;;;14.63;7.43;;;;;;;5.31;50.28;101127.19;7633475;32;38160;-71
2021/12/18 15:23:06;;;;;;;18.50;8.88;;;;;;;4.59;52.68;101123.16;7633791;32;39417;-72
2021/12/18 15:27:22;;;;;;;18.95;8.38;;;;;;;5.07;51.79;101115.03;7633713;32;39556;-72
2021/12/18 15:31:39;;;;;;;11.65;7.18;;;;;;;5.14;51.52;101118.63;7633730;32;37464;-73
2021/12/18 15:35:55;;;;;;;15.65;7.80;;;;;;;5.42;50.94;101121.19;7633733;32;37181;-72
2021/12/18 15:40:11;;;;;;;16.48;8.43;;;;;;;5.24;50.83;101116.38;7631466;32;39490;-72
2021/12/18 15:44:28;;;;;;;15.25;8.43;;;;;;;5.20;51.30;101123.19;7632895;32;40092;-73
2021/12/18 15:48:46;;;;;;;16.50;9.88;;;;;;;4.99;51.79;101107.97;7633473;32;37712;-72
2021/12/18 15:53:03;;;;;;;16.10;7.57;;;;;;;4.64;52.50;101099.06;7633059;32;38319;-73
2021/12/18 15:57:19;;;;;;;24.30;10.88;;;;;;;5.30;51.51;101094.97;7633343;32;39508;-71
2021/12/18 16:01:35;;;;;;;16.13;8.07;;;;;;;4.93;52.30;101097.94;7633222;32;39942;-72
2021/12/18 16:05:52;;;;;;;15.68;9.02;;;;;;;4.70;52.83;101096.41;7633296;32;37985;-72
2021/12/18 16:10:08;;;;;;;16.23;7.55;;;;;;;4.57;53.68;101106.31;7633114;32;37334;-72
2021/12/18 16:14:24;;;;;;;13.75;7.07;;;;;;;4.82;52.71;101101.25;7633235;32;39268;-72
2021/12/18 16:18:41;;;;;;;18.27;7.12;;;;;;;5.27;52.02;101101.59;7632249;32;39973;-73
2021/12/18 16:22:58;;;;;;;14.87;8.30;;;;;;;5.12;52.09;101079.31;7631838;32;39173;-72
2021/12/18 16:27:15;;;;;;;13.52;7.93;;;;;;;4.45;54.20;101077.19;7633062;32;37915;-72
2021/12/18 16:31:32;;;;;;;16.87;7.72;;;;;;;4.27;54.66;101079.56;7633036;32;39384;-71
2021/12/18 16:35:48;;;;;;;15.27;8.20;;;;;;;4.98;52.71;101071.16;7632959;32;39675;-73
2021/12/18 16:40:05;;;;;;;16.27;7.90;;;;;;;4.96;53.07;101064.28;7631515;32;38437;-73
2021/12/18 16:44:22;;;;;;;13.52;7.20;;;;;;;5.08;52.90;101049.97;7633089;32;37378;-73
2021/12/18 16:48:39;;;;;;;17.33;8.88;;;;;;;4.39;54.65;101056.38;7632839;32;39391;-73
2021/12/18 16:52:55;;;;;;;14.68;8.35;;;;;;;4.78;54.06;101056.75;7632720;32;40824;-72
2021/12/18 16:57:11;;;;;;;14.55;7.93;;;;;;;4.85;53.66;101039.53;7632323;32;38869;-71
2021/12/18 17:01:27;;;;;;;16.73;7.28;;;;;;;4.88;53.49;101041.81;7632694;32;37200;-72
2021/12/18 17:05:44;;;;;;;16.00;7.22;;;;;;;4.71;54.07;101043.22;7632956;32;40103;-72
2021/12/18 17:10:00;;;;;;;15.05;7.97;;;;;;;5.17;52.86;101037.09;7632388;32;40155;-72
2021/12/18 17:14:16;;;;;;;31.80;11.10;;;;;;;4.99;53.27;101032.28;7632516;32;38707;-73
2021/12/18 17:18:32;;;;;;;16.05;7.53;;;;;;;5.08;52.87;101038.31;7632481;32;37114;-72
2021/12/18 17:22:49;;;;;;;15.73;7.87;;;;;;;4.89;53.49;101035.38;7632364;32;39405;-74
2021/12/18 17:27:06;;;;;;;18.73;7.82;;;;;;;4.26;55.72;101030.16;7632406;32;40106;-73
2021/12/18 17:31:22;;;;;;;16.67;8.00;;;;;;;4.95;53.88;101024.78;7631943;32;37670;-76
2021/12/18 17:35:40;;;;;;;14.25;7.75;;;;;;;5.21;53.26;101016.72;7632406;32;36810;-73
2021/12/18 17:39:56;;;;;;;16.73;7.80;;;;;;;4.78;54.42;101016.25;7632321;32;39873;-72
2021/12/18 17:44:12;;;;;;;16.92;7.72;;;;;;;4.53;54.93;101021.34;7632252;32;39690;-73
2021/12/18 17:48:29;;;;;;;14.85;7.35;;;;;;;4.57;55.03;101022.59;7632109;32;38665;-72
2021/12/18 17:52:45;;;;;;;14.52;7.62;;;;;;;4.64;54.27;101031.53;7630990;32;37951;-72
2021/12/18 17:57:01;;;;;;;16.98;8.35;;;;;;;4.94;54.11;101023.13;7632078;32;40072;-72
2021/12/18 18:01:17;;;;;;;17.37;6.78;;;;;;;4.82;54.12;101023.72;7632448;32;40711;-74
2021/12/18 18:05:34;;;;;;;15.40;8.20;;;;;;;4.77;53.96;101004.56;7631832;32;38733;-73
2021/12/18 18:09:56;;;;;;;14.45;7.30;;;;;;;5.11;53.63;101016.31;7631683;32;37939;-74
2021/12/18 18:14:12;;;;;;;14.98;6.97;;;;;;;5.15;53.58;101009.44;7632372;32;39180;-73
2021/12/18 18:18:28;;;;;;;15.10;7.53;;;;;;;5.47;52.52;101004.25;7631766;32;39815;-74
2021/12/18 18:22:44;;;;;;;18.62;8.07;;;;;;;5.49;53.78;101007.59;7630358;32;38803;-73
2021/12/18 18:27:01;;;;;;;12.50;7.00;;;;;;;5.49;52.72;100994.06;7631650;32;37175;-74
2021/12/18 18:31:18;;;;;;;16.35;7.07;;;;;;;5.12;53.45;100981.97;7631849;32;40303;-74
2021/12/18 18:35:34;;;;;;;14.00;7.05;;;;;;;4.90;54.54;100974.06;7631495;32;39732;-73
2021/12/18 18:39:50;;;;;;;14.02;7.05;;;;;;;5.36;53.33;100975.13;7630321;32;38393;-73
2021/12/18 18:44:07;;;;;;;15.77;7.05;;;;;;;4.47;55.34;100983.31;7631260;32;36933;-73
2021/12/18 18:48:26;;;;;;;13.98;7.35;;;;;;;4.85;54.59;100969.28;7630945;32;40182;-73
2021/12/18 18:52:42;;;;;;;11.40;7.18;;;;;;;5.27;53.26;100969.09;7631051;32;39157;-72
2021/12/18 18:56:58;;;;;;;18.77;7.55;;;;;;;4.51;55.55;100960.25;7631265;32;36137;-73
2021/12/18 19:01:15;;;;;;;12.63;7.75;;;;;;;5.14;53.82;100956.41;7630854;32;36837;-72
2021/12/18 19:05:32;;;;;;;17.30;7.85;;;;;;;5.39;53.30;100953.09;7630770;32;39379;-72
2021/12/18 19:09:50;;;;;;;14.55;7.57;;;;;;;4.53;55.53;100968.16;7630320;32;40001;-72
2021/12/18 19:14:06;;;;;;;18.02;8.48;;;;;;;5.20;53.67;100965.56;7630427;32;38081;-73
2021/12/18 19:18:23;;;;;;;18.65;7.78;;;;;;;4.93;54.82;100964.69;7630434;32;38027;-74
2021/12/18 19:22:42;;;;;;;14.65;8.27;;;;;;;5.29;53.64;100963.50;7630346;32;39376;-73
2021/12/18 19:26:59;;;;;;;15.98;8.30;;;;;;;5.08;54.25;100957.25;7630263;32;39605;-73
2021/12/18 19:31:15;;;;;;;17.30;7.93;;;;;;;4.67;55.69;100942.00;7629978;32;38039;-72
2021/12/18 19:35:34;;;;;;;18.23;9.52;;;;;;;5.29;53.94;100922.94;7629946;32;38082;-72
2021/12/18 19:39:50;;;;;;;16.50;9.55;;;;;;;5.40;53.95;100906.91;7628878;32;39731;-72
2021/12/18 19:44:06;;;;;;;24.17;9.85;;;;;;;5.35;54.41;100916.69;7629439;32;40465;-72
2021/12/18 19:48:23;;;;;;;19.50;8.35;;;;;;;5.43;54.76;100905.63;7629629;32;38753;-72
2021/12/18 19:52:40;;;;;;;17.00;8.95;;;;;;;4.42;58.29;100899.38;7631310;32;37421;-73
2021/12/18 19:56:56;;;;;;;17.15;8.98;;;;;;;5.32;55.86;100909.00;7633277;32;40177;-72
2021/12/18 20:01:12;;;;;;;19.77;10.52;;;;;;;5.49;55.37;100910.22;7633356;32;41227;-72
2021/12/18 20:05:34;;;;;;;18.55;9.32;;;;;;;5.19;56.24;100905.25;7633189;32;37566;-74
2021/12/18 20:09:50;;;;;;;16.10;8.18;;;;;;;5.30;56.33;100905.69;7633183;32;36836;-72
2021/12/18 20:14:07;;;;;;;19.17;9.18;;;;;;;5.16;57.28;100894.87;7633146;32;39919;-72
2021/12/18 20:18:24;;;;;;;15.27;7.18;;;;;;;4.84;58.29;100891.94;7632975;32;39869;-73
2021/12/18 20:22:40;;;;;;;18.20;8.55;;;;;;;4.93;57.59;100891.75;7632811;32;38783;-73
2021/12/18 20:26:59;;;;;;;16.05;9.13;;;;;;;4.58;59.63;100881.94;7633174;32;37995;-72
2021/12/18 20:31:15;;;;;;;15.70;8.40;;;;;;;4.33;60.49;100884.41;7633106;32;39440;-72
2021/12/18 20:35:32;;;;;;;14.27;8.32;;;;;;;4.63;59.46;100873.22;7632915;32;39964;-73
2021/12/18 20:39:48;;;;;;;17.10;8.45;;;;;;;4.49;60.56;100862.41;7632861;32;38011;-73
2021/12/18 20:44:10;;;;;;;16.20;8.35;;;;;;;4.37;60.70;100858.66;7632647;32;36788;-73
2021/12/18 20:48:26;;;;;;;15.75;8.57;;;;;;;4.36;61.91;100854.25;7632925;32;39465;-73
2021/12/18 20:52:43;;;;;;;16.92;9.45;;;;;;;4.30;61.53;100842.44;7633200;32;38108;-72
2021/12/18 20:56:59;;;;;;;17.35;9.52;;;;;;;4.46;61.43;100833.09;7632765;32;38170;-73
2021/12/18 21:01:16;;;;;;;23.77;9.40;;;;;;;4.45;61.15;100828.75;7632635;32;37308;-72